Time;durP1;ratioP1;P1;durP2;ratioP2;P2;SDS_P1;SDS_P2;PMS_P1;PMS_P2;Temp;Humidity;BMP_temperature;BMP_pressure;BME280_temperature;BME280_humidity;BME280_pressure;Samples;Min_cycle;Max_cycle;Signal;HPM_P1;HPM_P2
2022/03/22 00:01:39;;;;;;;68.73;33.53;;;;;;;1.29;54.21;96140.59;5034798;28;20624;-79
2022/03/22 00:04:10;;;;;;;67.27;31.63;;;;;;;1.45;53.97;96146.09;5021109;28;20260;-79
2022/03/22 00:06:39;;;;;;;75.80;34.50;;;;;;;1.51;53.99;96151.53;5028472;28;20635;-78
2022/03/22 00:09:08;;;;;;;80.70;34.83;;;;;;;1.55;54.37;96149.53;5032103;28;20280;-78
2022/03/22 00:11:37;;;;;;;79.20;35.87;;;;;;;1.60;53.56;96144.84;5028859;28;20666;-78
2022/03/22 00:14:08;;;;;;;72.70;33.07;;;;;;;1.63;53.12;96145.41;5026390;28;20273;-78
2022/03/22 00:16:37;;;;;;;73.70;32.47;;;;;;;1.64;53.20;96144.47;5031376;28;20657;-77
2022/03/22 00:19:06;;;;;;;79.40;33.70;;;;;;;1.61;53.22;96138.78;5030091;28;20217;-79
2022/03/22 00:21:37;;;;;;;70.47;32.43;;;;;;;1.56;53.89;96141.72;5036594;28;20199;-78
2022/03/22 00:24:07;;;;;;;63.73;31.00;;;;;;;1.56;53.86;96135.78;5018691;28;20195;-78
2022/03/22 00:26:36;;;;;;;71.40;34.27;;;;;;;1.55;54.15;96135.00;5026895;28;20206;-78
2022/03/22 00:29:05;;;;;;;62.77;31.60;;;;;;;1.58;54.23;96134.75;5024616;28;20773;-78
2022/03/22 00:31:37;;;;;;;62.83;31.83;;;;;;;1.64;54.50;96121.44;5028940;28;20605;-79
2022/03/22 00:34:06;;;;;;;58.07;27.63;;;;;;;1.61;53.47;96131.94;5019785;28;20210;-79
2022/03/22 00:36:37;;;;;;;60.67;29.67;;;;;;;1.50;54.00;96134.53;5027524;28;20200;-78
2022/03/22 00:39:06;;;;;;;63.43;30.97;;;;;;;1.44;54.42;96131.69;5026690;28;20200;-78
2022/03/22 00:41:35;;;;;;;58.37;28.67;;;;;;;1.41;54.31;96127.63;5025113;28;20226;-77
2022/03/22 00:44:04;;;;;;;55.37;27.20;;;;;;;1.44;54.13;96122.25;5026384;28;20195;-78
2022/03/22 00:46:33;;;;;;;48.93;23.90;;;;;;;1.46;53.72;96124.69;5031108;28;20198;-78
2022/03/22 00:49:02;;;;;;;59.50;26.53;;;;;;;1.47;53.95;96106.59;5019276;28;20283;-78
2022/03/22 00:51:32;;;;;;;55.50;26.00;;;;;;;1.66;54.77;96123.84;5022331;28;20632;-78
2022/03/22 00:54:03;;;;;;;57.77;28.70;;;;;;;1.77;54.19;96133.19;5025052;28;20213;-79
2022/03/22 00:56:32;;;;;;;63.40;26.90;;;;;;;1.64;53.26;96123.16;5016625;28;20323;-80
2022/03/22 01:01:47;;;;;;;52.70;26.03;;;;;;;1.60;53.17;96126.91;5024784;28;20193;-78
2022/03/22 01:04:16;;;;;;;53.67;25.13;;;;;;;1.64;53.11;96115.50;5026289;28;20198;-78
2022/03/22 01:06:45;;;;;;;48.87;25.30;;;;;;;1.67;53.57;96120.34;5032667;28;20203;-78
2022/03/22 01:09:16;;;;;;;55.30;26.43;;;;;;;1.71;53.69;96126.84;5032886;28;20205;-78
2022/03/22 01:11:46;;;;;;;49.30;25.97;;;;;;;1.81;53.57;96106.38;5022069;28;20233;-77
2022/03/22 01:14:15;;;;;;;52.13;26.77;;;;;;;1.79;54.03;96108.28;5036143;28;20205;-79
2022/03/22 01:16:45;;;;;;;53.40;26.30;;;;;;;1.71;54.75;96099.47;5028941;28;20205;-80
2022/03/22 01:19:14;;;;;;;58.13;27.40;;;;;;;1.86;54.39;96105.06;5020909;28;20725;-79
2022/03/22 01:21:43;;;;;;;53.80;26.57;;;;;;;1.82;54.39;96108.03;5025272;28;20726;-79
2022/03/22 01:24:12;;;;;;;55.97;26.20;;;;;;;1.85;54.33;96113.69;5033371;28;20654;-80
2022/03/22 01:26:43;;;;;;;53.60;26.30;;;;;;;1.96;54.21;96105.09;5032460;28;20199;-80
2022/03/22 01:29:13;;;;;;;52.20;25.77;;;;;;;1.98;53.80;96093.78;5028675;28;20199;-79
2022/03/22 01:31:42;;;;;;;51.37;25.73;;;;;;;1.93;54.28;96095.94;5030208;28;20207;-78
2022/03/22 01:34:11;;;;;;;51.63;25.83;;;;;;;2.02;54.35;96097.69;5028826;28;20207;-79
2022/03/22 01:36:40;;;;;;;57.20;26.53;;;;;;;1.97;53.71;96094.72;5017202;28;20670;-79
2022/03/22 01:39:09;;;;;;;59.60;29.00;;;;;;;2.02;53.14;96097.69;5021174;28;20250;-78
2022/03/22 01:41:38;;;;;;;55.23;27.17;;;;;;;1.98;53.31;96088.66;5020544;28;20199;-77
2022/03/22 01:44:09;;;;;;;60.50;27.87;;;;;;;2.06;53.74;96093.94;5032588;28;20221;-78
2022/03/22 01:46:39;;;;;;;58.83;27.20;;;;;;;2.11;53.57;96093.53;5019017;28;20203;-78
2022/03/22 01:49:08;;;;;;;51.10;26.03;;;;;;;1.99;54.04;96086.91;5037794;28;20202;-78
2022/03/22 01:51:37;;;;;;;47.17;24.37;;;;;;;2.03;53.50;96096.75;5041392;28;20204;-80
2022/03/22 01:54:08;;;;;;;45.77;22.60;;;;;;;1.98;52.12;96096.34;5036594;28;20233;-79
2022/03/22 01:56:37;;;;;;;50.73;24.63;;;;;;;1.96;52.80;96080.28;5024782;28;20344;-78
2022/03/22 01:59:08;;;;;;;49.03;22.60;;;;;;;1.89;52.75;96076.63;5022592;28;20223;-79
2022/03/22 02:07:11;;;;;;;54.10;25.93;;;;;;;2.01;54.52;96092.72;5022646;28;20221;-78
2022/03/22 02:09:40;;;;;;;44.63;21.97;;;;;;;2.04;52.01;96088.13;5028250;28;20198;-79
2022/03/22 02:12:10;;;;;;;48.67;23.07;;;;;;;1.96;52.05;96079.47;5032242;28;20299;-80
2022/03/22 02:14:41;;;;;;;48.33;22.47;;;;;;;1.84;51.56;96077.94;5021725;28;20203;-80
2022/03/22 02:17:12;;;;;;;43.50;20.97;;;;;;;1.77;51.88;96075.06;5031109;28;20191;-79
2022/03/22 02:19:42;;;;;;;44.90;22.23;;;;;;;1.84;52.90;96080.50;5025174;28;20195;-78
2022/03/22 02:22:12;;;;;;;47.60;24.40;;;;;;;1.79;53.29;96072.41;5023102;28;20301;-79
2022/03/22 02:24:43;;;;;;;55.17;26.03;;;;;;;1.88;53.58;96069.03;5030456;28;20197;-80
2022/03/22 02:27:12;;;;;;;47.30;22.93;;;;;;;1.92;53.45;96063.53;5028751;28;20192;-79
2022/03/22 02:29:42;;;;;;;47.27;25.07;;;;;;;1.96;53.15;96079.47;5024245;28;20202;-79
2022/03/22 02:32:12;;;;;;;53.37;24.93;;;;;;;1.92;54.27;96066.09;5027328;28;20230;-78
2022/03/22 02:34:41;;;;;;;50.70;24.37;;;;;;;1.89;53.68;96056.09;5028597;28;20262;-78
2022/03/22 02:37:10;;;;;;;52.17;23.83;;;;;;;1.99;53.43;96061.28;5022726;28;20195;-78
2022/03/22 02:39:39;;;;;;;44.10;22.33;;;;;;;1.95;53.39;96062.47;5024370;28;20699;-79
2022/03/22 02:42:11;;;;;;;51.10;23.73;;;;;;;1.96;53.66;96069.22;5024016;28;20209;-79
2022/03/22 02:44:40;;;;;;;51.07;24.50;;;;;;;1.76;54.03;96058.06;5023341;28;20209;-79
2022/03/22 02:47:09;;;;;;;49.23;24.07;;;;;;;1.90;54.77;96075.69;5024047;28;20237;-80
2022/03/22 02:49:39;;;;;;;51.10;24.33;;;;;;;1.86;54.49;96069.19;5023372;28;20224;-79
2022/03/22 02:52:09;;;;;;;53.37;23.50;;;;;;;1.73;55.15;96072.91;5024188;28;20699;-80
2022/03/22 02:54:38;;;;;;;48.63;23.63;;;;;;;1.77;55.15;96077.63;5021956;28;20214;-80
2022/03/22 02:57:07;;;;;;;50.80;23.73;;;;;;;1.84;55.14;96077.94;5025884;28;20230;-82
2022/03/22 02:59:38;;;;;;;57.23;25.13;;;;;;;1.87;55.10;96081.06;5030426;28;20278;-81
2022/03/22 03:02:07;;;;;;;45.50;22.67;;;;;;;1.81;54.67;96093.56;5031186;28;20202;-79
2022/03/22 03:04:36;;;;;;;51.07;22.97;;;;;;;1.74;55.05;96085.59;5024650;28;20227;-80
2022/03/22 03:07:06;;;;;;;46.47;22.00;;;;;;;1.70;55.40;96090.16;5024092;28;20272;-79
2022/03/22 03:09:35;;;;;;;51.23;21.27;;;;;;;1.69;54.45;96093.66;5022236;28;20721;-79
2022/03/22 03:12:03;;;;;;;50.53;22.40;;;;;;;1.70;55.38;96084.22;5023785;28;20201;-78
2022/03/22 03:14:40;;;;;;;44.27;21.70;;;;;;;1.61;55.32;96077.31;5028014;28;20201;-80
2022/03/22 03:17:11;;;;;;;45.80;21.23;;;;;;;1.62;54.97;96086.59;5028743;28;20205;-80
2022/03/22 03:19:38;;;;;;;46.63;22.93;;;;;;;1.59;55.93;96077.44;5026835;28;20240;-80
2022/03/22 03:22:06;;;;;;;50.80;23.93;;;;;;;1.53;55.62;96072.03;5021031;28;20257;-80
2022/03/22 03:24:34;;;;;;;51.17;22.00;;;;;;;1.47;56.04;96077.66;5019930;28;20316;-78
2022/03/22 03:27:04;;;;;;;50.20;24.23;;;;;;;1.40;55.85;96069.66;5024274;28;20226;-78
2022/03/22 03:29:31;;;;;;;63.20;25.83;;;;;;;1.40;55.64;96081.63;5023278;28;20570;-77
2022/03/22 03:31:59;;;;;;;49.13;24.13;;;;;;;1.29;55.71;96081.72;5023550;28;20407;-77
2022/03/22 03:34:28;;;;;;;53.10;25.10;;;;;;;1.19;55.78;96065.47;5022120;28;20289;-79
2022/03/22 03:36:59;;;;;;;48.73;24.03;;;;;;;1.08;56.12;96068.91;5022951;28;20666;-78
2022/03/22 03:39:27;;;;;;;54.93;25.77;;;;;;;1.17;56.15;96073.28;5027213;28;20210;-78
2022/03/22 03:41:55;;;;;;;54.53;27.10;;;;;;;1.15;56.12;96078.53;5021809;28;20260;-78
2022/03/22 03:47:11;;;;;;;53.90;25.50;;;;;;;1.22;56.94;96076.28;5021596;28;20198;-79
2022/03/22 03:49:42;;;;;;;52.10;21.17;;;;;;;1.18;55.41;96079.22;5022047;28;20282;-80
2022/03/22 03:52:12;;;;;;;39.00;18.30;;;;;;;1.15;54.92;96083.63;5027521;28;20626;-78
2022/03/22 03:54:40;;;;;;;39.20;19.10;;;;;;;1.06;54.97;96075.91;5027515;28;20281;-78
2022/03/22 03:57:08;;;;;;;40.93;18.13;;;;;;;1.08;55.21;96079.16;5026202;28;20230;-77
2022/03/22 03:59:36;;;;;;;43.40;17.27;;;;;;;1.17;55.11;96072.47;5025092;28;20223;-78
2022/03/22 04:02:06;;;;;;;38.67;17.70;;;;;;;1.15;54.54;96067.50;5032339;28;20561;-78
2022/03/22 04:04:35;;;;;;;42.90;18.17;;;;;;;1.12;54.79;96072.88;5027469;28;20267;-78
2022/03/22 04:07:05;;;;;;;44.63;20.13;;;;;;;1.06;55.25;96076.75;5020049;28;20677;-78
2022/03/22 04:09:33;;;;;;;48.03;21.67;;;;;;;1.04;55.56;96070.91;5023459;28;20218;-78
2022/03/22 04:12:00;;;;;;;53.50;25.00;;;;;;;1.03;55.98;96079.53;5031022;28;20210;-81
2022/03/22 04:14:28;;;;;;;58.17;25.37;;;;;;;1.03;55.98;96071.06;5021252;28;20290;-80
2022/03/22 04:16:57;;;;;;;54.03;23.87;;;;;;;1.00;56.05;96077.22;5021206;28;20297;-81
2022/03/22 04:19:26;;;;;;;54.10;24.70;;;;;;;0.90;56.57;96073.78;5021612;28;20325;-82
2022/03/22 04:21:54;;;;;;;62.93;28.73;;;;;;;0.99;56.33;96075.59;5039944;28;20281;-80
2022/03/22 04:24:23;;;;;;;65.97;30.10;;;;;;;0.93;56.38;96076.09;5023350;28;20205;-80
2022/03/22 04:26:51;;;;;;;70.47;33.20;;;;;;;0.92;57.20;96084.72;5025175;28;20638;-81
2022/03/22 04:34:49;;;;;;;68.60;28.33;;;;;;;0.89;57.02;96072.19;5018226;28;20206;-79
2022/03/22 04:37:18;;;;;;;59.53;29.93;;;;;;;0.90;57.49;96078.91;5025450;28;20223;-79
2022/03/22 04:39:48;;;;;;;69.67;31.53;;;;;;;0.95;57.16;96086.22;5036365;28;20217;-79
2022/03/22 04:42:15;;;;;;;76.97;32.90;;;;;;;0.92;57.65;96077.03;5025625;28;20195;-80
2022/03/22 04:44:43;;;;;;;64.40;31.47;;;;;;;0.88;56.99;96074.84;5028146;28;20204;-73
2022/03/22 04:47:11;;;;;;;83.90;35.43;;;;;;;0.84;57.60;96076.00;5023503;28;20191;-73
2022/03/22 04:49:39;;;;;;;115.47;49.37;;;;;;;0.84;57.88;96084.50;5026419;28;20197;-72
2022/03/22 04:57:39;;;;;;;102.90;45.67;;;;;;;0.80;57.81;96075.47;5026071;28;20236;-72
2022/03/22 05:00:07;;;;;;;103.83;42.53;;;;;;;0.77;57.60;96074.91;5024795;28;20222;-74
2022/03/22 05:02:35;;;;;;;98.83;43.90;;;;;;;0.80;57.68;96078.03;5023470;28;20197;-73
2022/03/22 05:05:02;;;;;;;104.97;46.77;;;;;;;0.82;57.82;96080.44;5025162;28;20203;-75
2022/03/22 05:07:30;;;;;;;115.77;49.07;;;;;;;0.80;58.09;96080.59;5024158;28;20201;-74
2022/03/22 05:09:59;;;;;;;109.20;51.03;;;;;;;0.84;58.56;96081.13;5024417;28;20233;-73
2022/03/22 05:12:26;;;;;;;116.37;53.63;;;;;;;0.83;58.64;96085.47;5024577;28;20211;-74
2022/03/22 05:14:54;;;;;;;117.80;53.50;;;;;;;0.90;58.26;96085.75;5024965;28;20709;-73
2022/03/22 05:17:23;;;;;;;130.77;53.23;;;;;;;0.92;58.42;96077.03;4998128;28;20687;-73
2022/03/22 05:19:52;;;;;;;117.73;51.87;;;;;;;0.92;58.29;96076.22;4997537;28;20349;-73
2022/03/22 05:22:20;;;;;;;123.93;54.53;;;;;;;0.92;58.32;96077.03;5023278;28;20650;-72
2022/03/22 05:24:48;;;;;;;100.77;48.77;;;;;;;0.94;56.76;96084.59;5023327;28;20279;-72
2022/03/22 05:27:18;;;;;;;114.23;43.17;;;;;;;0.90;55.72;96068.66;5025421;28;20231;-75
2022/03/22 05:29:45;;;;;;;116.87;46.30;;;;;;;0.90;56.48;96073.78;5023649;28;20201;-73
2022/03/22 05:32:13;;;;;;;112.07;44.83;;;;;;;0.86;56.12;96067.31;5022494;28;20198;-73
2022/03/22 05:34:41;;;;;;;107.27;43.13;;;;;;;0.85;56.59;96068.22;5023348;28;20264;-73
2022/03/22 05:37:10;;;;;;;124.20;50.40;;;;;;;1.04;56.76;96075.22;5022417;28;20284;-73
2022/03/22 05:39:38;;;;;;;151.40;50.47;;;;;;;1.21;55.79;96073.84;5022508;28;20223;-74
2022/03/22 05:42:07;;;;;;;89.97;38.27;;;;;;;1.33;54.66;96073.66;5021810;28;20210;-74
2022/03/22 05:44:36;;;;;;;109.83;41.87;;;;;;;1.39;54.69;96069.75;5024158;28;20190;-74
2022/03/22 05:47:04;;;;;;;94.50;38.07;;;;;;;1.54;53.62;96076.19;5023141;28;20669;-73
2022/03/22 05:49:33;;;;;;;86.03;37.27;;;;;;;1.68;52.71;96080.97;5028065;28;20754;-73
2022/03/22 05:52:00;;;;;;;83.87;36.60;;;;;;;1.78;52.04;96069.03;5022143;28;20205;-73
2022/03/22 05:54:28;;;;;;;84.97;35.73;;;;;;;1.95;51.93;96060.72;5021975;28;20241;-75
2022/03/22 05:56:56;;;;;;;77.70;33.97;;;;;;;2.07;50.02;96059.69;5022833;28;20292;-73
2022/03/22 05:59:24;;;;;;;61.17;27.83;;;;;;;2.31;48.37;96076.47;5022090;28;20221;-75
2022/03/22 06:01:54;;;;;;;63.17;27.90;;;;;;;2.37;46.91;96058.78;5023647;28;20312;-74
2022/03/22 06:04:22;;;;;;;47.57;21.47;;;;;;;2.65;46.60;96064.91;5021700;28;20267;-75
2022/03/22 06:06:49;;;;;;;40.00;19.43;;;;;;;2.85;45.65;96063.94;5021323;28;20253;-74
2022/03/22 06:09:17;;;;;;;48.93;21.33;;;;;;;3.05;45.55;96073.25;5023429;28;20621;-74
2022/03/22 06:11:44;;;;;;;59.00;20.03;;;;;;;3.15;45.37;96068.91;5021465;28;20195;-74
2022/03/22 06:14:12;;;;;;;30.17;15.03;;;;;;;3.38;44.11;96075.34;5024050;28;20695;-74
2022/03/22 06:16:39;;;;;;;33.90;16.17;;;;;;;3.41;43.84;96062.25;5021878;28;20658;-73
2022/03/22 06:19:08;;;;;;;27.73;14.70;;;;;;;3.71;43.56;96079.19;5021156;28;20214;-73
2022/03/22 06:21:36;;;;;;;31.27;14.33;;;;;;;3.89;42.54;96067.25;5023002;28;20249;-73
2022/03/22 06:24:05;;;;;;;28.90;13.67;;;;;;;3.92;42.21;96066.94;5021832;28;20658;-73
2022/03/22 06:26:33;;;;;;;27.03;12.77;;;;;;;3.84;42.21;96066.00;5023732;28;20684;-73
2022/03/22 06:29:01;;;;;;;21.63;11.80;;;;;;;4.15;39.95;96064.00;5021601;28;20223;-78
2022/03/22 06:31:28;;;;;;;21.47;11.37;;;;;;;4.31;39.67;96056.44;5021164;28;20202;-77
2022/03/22 06:33:56;;;;;;;19.77;11.40;;;;;;;4.36;39.22;96065.34;5023186;28;20198;-76
2022/03/22 06:36:26;;;;;;;23.40;11.47;;;;;;;4.41;40.11;96063.16;5022891;28;20202;-74
2022/03/22 06:38:53;;;;;;;19.33;10.50;;;;;;;4.44;39.68;96056.91;5021576;28;20219;-76
2022/03/22 06:41:21;;;;;;;23.17;11.83;;;;;;;4.60;40.06;96067.38;5020426;28;20199;-75
2022/03/22 06:43:49;;;;;;;22.57;10.73;;;;;;;4.66;39.61;96071.94;5021432;28;20560;-73
2022/03/22 06:46:16;;;;;;;19.53;10.17;;;;;;;4.67;39.55;96067.59;5023582;28;20206;-76
2022/03/22 06:48:44;;;;;;;23.27;10.77;;;;;;;4.78;39.57;96064.78;5022056;28;20724;-74
2022/03/22 06:51:11;;;;;;;20.33;10.60;;;;;;;4.89;40.09;96056.84;5024063;28;20356;-75
2022/03/22 06:53:41;;;;;;;18.50;10.93;;;;;;;5.09;39.71;96060.88;5023418;28;20200;-75
2022/03/22 06:56:09;;;;;;;21.63;11.47;;;;;;;5.20;39.29;96068.38;5024167;28;20310;-75
2022/03/22 06:58:39;;;;;;;21.17;11.13;;;;;;;5.27;37.97;96066.81;5023407;28;20231;-77
2022/03/22 07:01:17;;;;;;;25.87;10.83;;;;;;;5.26;38.31;96070.34;5018303;28;20205;-76
2022/03/22 07:03:45;;;;;;;24.93;11.30;;;;;;;5.44;37.91;96065.97;5020268;28;20257;-76
2022/03/22 07:06:26;;;;;;;24.77;12.00;;;;;;;5.53;37.23;96062.47;5021266;28;20194;-76
2022/03/22 07:08:56;;;;;;;23.23;12.17;;;;;;;5.64;38.15;96064.81;5019551;28;20228;-76
2022/03/22 07:14:08;;;;;;;27.10;13.37;;;;;;;5.99;36.85;96056.16;5023423;28;20332;-77
2022/03/22 07:16:39;;;;;;;26.20;13.43;;;;;;;6.05;37.82;96060.69;5019154;28;20279;-76
2022/03/22 07:19:07;;;;;;;24.20;12.67;;;;;;;6.17;37.31;96066.38;5019516;28;20222;-78
2022/03/22 07:21:34;;;;;;;28.73;14.33;;;;;;;6.30;37.11;96061.56;5010354;28;20256;-76
2022/03/22 07:24:04;;;;;;;29.70;14.03;;;;;;;6.42;36.65;96052.56;5020489;28;20234;-76
2022/03/22 07:26:33;;;;;;;21.03;13.07;;;;;;;6.54;36.75;96053.91;5018752;28;20288;-76
2022/03/22 07:29:01;;;;;;;31.10;18.63;;;;;;;6.58;36.74;96057.75;5021438;28;20643;-79
2022/03/22 07:31:28;;;;;;;25.13;15.90;;;;;;;6.63;36.56;96063.28;5023163;28;20210;-81
2022/03/22 07:33:56;;;;;;;23.40;12.27;;;;;;;6.72;36.05;96054.56;5022185;28;20195;-81
2022/03/22 07:36:24;;;;;;;20.03;11.27;;;;;;;6.70;35.67;96053.91;5020025;28;20194;-75
2022/03/22 07:38:51;;;;;;;19.40;11.03;;;;;;;6.81;35.68;96045.84;5021906;28;20230;-82
2022/03/22 07:41:20;;;;;;;21.37;11.53;;;;;;;7.00;35.21;96047.34;5019903;28;20253;-77
2022/03/22 07:43:48;;;;;;;19.27;11.67;;;;;;;7.05;35.34;96033.91;5020217;28;20285;-76
2022/03/22 07:46:15;;;;;;;25.90;11.50;;;;;;;7.09;35.79;96038.63;5021065;28;20527;-80
2022/03/22 07:48:43;;;;;;;20.40;11.23;;;;;;;7.11;36.14;96034.09;5021071;28;20579;-77
2022/03/22 07:53:55;;;;;;;16.90;10.27;;;;;;;7.32;36.25;96036.16;5020616;28;20284;-76
2022/03/22 07:56:25;;;;;;;26.73;10.73;;;;;;;7.32;36.55;96041.34;5019666;28;20287;-77
2022/03/22 07:58:53;;;;;;;24.03;10.90;;;;;;;7.36;36.82;96042.63;5019038;28;20543;-75
2022/03/22 08:01:20;;;;;;;22.43;11.97;;;;;;;7.50;36.81;96041.97;5018204;28;20207;-76
2022/03/22 08:03:48;;;;;;;19.13;11.07;;;;;;;7.56;37.05;96045.69;5019223;28;20207;-75
2022/03/22 08:06:15;;;;;;;18.63;11.20;;;;;;;7.63;37.03;96050.03;5019078;28;20206;-76
2022/03/22 08:08:45;;;;;;;17.33;10.13;;;;;;;7.71;37.04;96044.81;5019026;28;20284;-75
2022/03/22 08:11:15;;;;;;;20.87;11.93;;;;;;;7.66;36.97;96035.94;5022211;28;20658;-77
2022/03/22 08:13:44;;;;;;;18.17;10.77;;;;;;;7.78;36.69;96037.22;5021968;28;20199;-77
2022/03/22 08:16:14;;;;;;;24.50;13.13;;;;;;;7.76;36.70;96046.94;5024717;28;20202;-76
2022/03/22 08:18:41;;;;;;;25.57;13.60;;;;;;;7.72;36.74;96037.88;5027734;28;20207;-76
2022/03/22 08:21:09;;;;;;;22.67;12.73;;;;;;;7.78;37.49;96043.19;5021524;28;20214;-75
2022/03/22 08:23:37;;;;;;;20.30;11.37;;;;;;;7.85;36.82;96045.94;5018996;28;20647;-75
2022/03/22 08:26:05;;;;;;;21.57;11.57;;;;;;;7.90;35.79;96026.34;5018657;28;20202;-75
2022/03/22 08:28:33;;;;;;;22.27;11.87;;;;;;;7.94;36.01;96035.38;5019633;28;20192;-75
2022/03/22 08:31:02;;;;;;;21.07;11.90;;;;;;;7.95;36.34;96039.59;5019523;28;20642;-75
2022/03/22 08:33:30;;;;;;;19.70;12.00;;;;;;;7.91;36.91;96030.53;5017254;28;20726;-75
2022/03/22 08:35:57;;;;;;;26.13;12.60;;;;;;;7.97;37.11;96035.03;5019070;28;20187;-75
2022/03/22 08:38:25;;;;;;;21.23;12.67;;;;;;;7.99;37.26;96029.72;5019069;28;20231;-75
2022/03/22 08:40:56;;;;;;;25.57;12.60;;;;;;;8.03;37.46;96033.56;5019901;28;20242;-76
2022/03/22 08:43:25;;;;;;;18.17;11.53;;;;;;;8.13;37.23;96041.13;5020491;28;20206;-76
2022/03/22 08:45:54;;;;;;;20.83;11.53;;;;;;;8.09;37.66;96032.06;5017050;28;20203;-76
2022/03/22 08:48:23;;;;;;;19.43;11.50;;;;;;;8.11;37.04;96024.97;5018626;28;20712;-76
2022/03/22 08:50:53;;;;;;;20.60;11.57;;;;;;;8.12;37.69;96040.31;5019017;28;20199;-76
2022/03/22 08:53:23;;;;;;;19.00;11.50;;;;;;;8.09;37.72;96016.53;5023094;28;20645;-77
2022/03/22 08:55:51;;;;;;;24.03;12.50;;;;;;;8.25;37.16;96025.06;5022246;28;20196;-77
2022/03/22 08:58:19;;;;;;;24.93;12.07;;;;;;;8.23;37.64;96021.00;5019291;28;20336;-77
2022/03/22 09:00:47;;;;;;;20.13;12.03;;;;;;;8.21;37.96;96020.38;5020738;28;20292;-76
2022/03/22 09:03:14;;;;;;;22.60;11.83;;;;;;;8.21;38.01;96023.78;5018778;28;20210;-76
2022/03/22 09:11:51;;;;;;;21.73;11.30;;;;;;;7.97;40.37;96001.38;5022892;28;20217;-76
2022/03/22 09:14:18;;;;;;;21.70;12.53;;;;;;;7.94;40.51;95996.53;5018433;28;20202;-76
2022/03/22 09:16:46;;;;;;;24.90;11.90;;;;;;;7.95;40.20;95994.78;5019934;28;20191;-76
2022/03/22 09:19:13;;;;;;;24.97;13.10;;;;;;;8.04;40.75;96008.47;5017876;28;20203;-75
2022/03/22 09:21:42;;;;;;;31.40;12.90;;;;;;;8.05;40.54;95999.75;5017790;28;20249;-75
2022/03/22 09:24:10;;;;;;;27.87;13.30;;;;;;;8.10;40.84;96006.03;5021281;28;20198;-75
2022/03/22 09:26:38;;;;;;;21.23;11.60;;;;;;;8.26;39.97;96005.13;5021511;28;20198;-75
2022/03/22 09:29:07;;;;;;;22.17;13.17;;;;;;;8.24;40.48;95996.72;5024561;28;20202;-76
2022/03/22 09:31:35;;;;;;;28.87;12.30;;;;;;;8.22;40.37;95988.34;5022714;28;20206;-76
2022/03/22 09:34:03;;;;;;;24.27;12.23;;;;;;;8.22;39.95;95988.34;5022297;28;20199;-74
2022/03/22 09:36:32;;;;;;;22.97;12.70;;;;;;;8.28;40.17;95982.50;5023948;28;20279;-75
2022/03/22 09:39:01;;;;;;;31.50;15.50;;;;;;;8.30;39.99;95981.34;5024831;28;20286;-76
2022/03/22 09:41:30;;;;;;;43.37;14.87;;;;;;;8.28;40.41;95969.56;5019824;28;20223;-77
2022/03/22 09:43:59;;;;;;;28.53;13.40;;;;;;;8.30;41.08;95973.59;5022653;28;20194;-76
2022/03/22 09:46:26;;;;;;;31.90;14.93;;;;;;;8.30;41.13;95971.00;5025557;28;20278;-76
2022/03/22 09:48:57;;;;;;;28.87;13.00;;;;;;;8.30;42.07;95983.13;5025133;28;20199;-76
2022/03/22 09:54:14;;;;;;;15.80;8.93;;;;;;;8.29;45.72;95958.19;5022526;28;20558;-77
2022/03/22 09:56:42;;;;;;;21.10;7.50;;;;;;;8.32;45.89;95976.00;5022585;28;20219;-77
2022/03/22 09:59:10;;;;;;;16.73;8.13;;;;;;;8.34;45.78;95967.06;5023700;28;20257;-76
2022/03/22 10:01:41;;;;;;;24.20;8.57;;;;;;;8.36;45.93;95965.13;5025572;28;20251;-76
2022/03/22 10:04:12;;;;;;;17.57;7.20;;;;;;;8.41;46.00;95957.66;5024364;28;20192;-76
2022/03/22 10:06:46;;;;;;;16.40;8.10;;;;;;;8.38;45.91;95954.59;5023423;28;20274;-77
2022/03/22 10:09:15;;;;;;;13.83;8.00;;;;;;;8.40;46.22;95947.44;5023311;28;20206;-77
2022/03/22 10:11:44;;;;;;;17.53;7.80;;;;;;;8.38;46.06;95939.84;5023248;28;20206;-77
2022/03/22 10:14:13;;;;;;;17.67;8.03;;;;;;;8.48;46.38;95929.28;5023522;28;20225;-76
2022/03/22 10:16:51;;;;;;;16.13;8.33;;;;;;;8.55;46.05;95930.19;5023522;28;20264;-76
2022/03/22 10:19:23;;;;;;;12.93;7.70;;;;;;;8.61;45.75;95919.13;5025960;28;20220;-77
2022/03/22 10:21:52;;;;;;;17.80;8.73;;;;;;;8.68;45.32;95920.06;5020757;28;20192;-76
2022/03/22 10:24:22;;;;;;;17.00;8.20;;;;;;;8.73;44.56;95919.50;5022210;28;20198;-76
2022/03/22 10:26:50;;;;;;;13.80;7.77;;;;;;;9.05;44.67;95919.22;5022582;28;20654;-76
2022/03/22 10:29:18;;;;;;;18.63;8.17;;;;;;;9.34;43.83;95908.06;5020365;28;20316;-75
2022/03/22 10:31:47;;;;;;;17.50;8.70;;;;;;;9.73;43.80;95915.53;5020855;28;20614;-76
2022/03/22 10:34:16;;;;;;;17.67;8.30;;;;;;;9.82;42.65;95910.06;5022658;28;20743;-77
2022/03/22 10:36:44;;;;;;;16.97;8.50;;;;;;;10.17;43.22;95911.09;5020829;28;20195;-76
2022/03/22 10:39:14;;;;;;;17.37;9.03;;;;;;;10.68;42.30;95902.19;5019802;28;20199;-76
2022/03/22 10:41:45;;;;;;;15.73;8.70;;;;;;;11.39;41.36;95906.31;5018565;28;20215;-76
2022/03/22 10:44:14;;;;;;;19.07;9.07;;;;;;;12.26;39.31;95906.50;5022413;28;20272;-76
2022/03/22 10:46:43;;;;;;;14.33;8.10;;;;;;;12.53;38.09;95896.88;5021567;28;20187;-76
2022/03/22 10:49:13;;;;;;;17.37;8.53;;;;;;;12.98;37.84;95892.72;5020106;28;20194;-77
2022/03/22 10:51:45;;;;;;;18.10;8.83;;;;;;;13.22;37.11;95891.31;5021051;28;20198;-76
2022/03/22 10:54:15;;;;;;;14.87;8.67;;;;;;;13.84;35.94;95877.66;5025037;28;20227;-77
2022/03/22 10:56:47;;;;;;;14.60;8.67;;;;;;;14.42;35.11;95884.44;5021552;28;20269;-76
2022/03/22 10:59:16;;;;;;;17.00;8.60;;;;;;;14.59;34.56;95887.31;5019427;28;20283;-75
2022/03/22 11:01:45;;;;;;;13.80;8.00;;;;;;;14.68;34.59;95892.09;5020152;28;20222;-77
2022/03/22 11:04:15;;;;;;;18.43;9.17;;;;;;;15.11;33.65;95886.91;5022602;28;20191;-76
2022/03/22 11:06:46;;;;;;;13.63;8.73;;;;;;;15.47;32.89;95862.59;5023131;28;20207;-76
2022/03/22 11:09:15;;;;;;;16.53;7.97;;;;;;;15.88;31.67;95864.53;5023388;28;20281;-78
2022/03/22 11:11:43;;;;;;;16.87;8.30;;;;;;;16.34;30.73;95861.31;5019170;28;20713;-76
2022/03/22 11:14:15;;;;;;;14.00;7.37;;;;;;;15.84;29.72;95860.78;5021728;28;20203;-76
2022/03/22 11:16:46;;;;;;;15.20;8.23;;;;;;;15.78;30.11;95848.53;5022091;28;20253;-76
2022/03/22 11:19:14;;;;;;;15.57;7.77;;;;;;;15.72;29.99;95857.28;5019745;28;20225;-76
2022/03/22 11:21:43;;;;;;;12.80;8.53;;;;;;;15.65;29.80;95846.88;5021178;28;20435;-76
2022/03/22 11:24:12;;;;;;;18.90;8.13;;;;;;;15.80;29.94;95849.13;5024730;28;20742;-77
2022/03/22 11:26:42;;;;;;;16.73;8.00;;;;;;;16.15;29.87;95847.44;5022303;28;20278;-76
2022/03/22 11:29:13;;;;;;;11.27;8.00;;;;;;;16.26;29.28;95840.63;5019578;28;20195;-77
2022/03/22 11:34:08;;;;;;;12.47;7.83;;;;;;;16.51;29.39;95841.25;5022969;28;20630;-77
2022/03/22 11:34:30;;;;;;;13.43;7.93;;;;;;;16.78;29.25;95841.69;5019660;28;20195;-76
2022/03/22 11:37:01;;;;;;;12.40;8.20;;;;;;;16.98;28.86;95824.56;5021470;28;20210;-77
2022/03/22 11:42:19;;;;;;;16.00;7.90;;;;;;;17.86;27.63;95819.09;5021575;28;20246;-77
2022/03/22 11:44:58;;;;;;;13.93;7.80;;;;;;;18.31;26.82;95827.00;5021836;28;20191;-77
2022/03/22 11:47:27;;;;;;;13.33;7.70;;;;;;;18.68;26.30;95817.66;5019480;28;20198;-77
2022/03/22 11:49:56;;;;;;;12.87;8.43;;;;;;;18.86;26.23;95818.44;5018655;28;20305;-76
2022/03/22 11:52:25;;;;;;;12.07;8.07;;;;;;;18.95;25.96;95812.53;5020915;28;20297;-77
2022/03/22 11:54:58;;;;;;;16.05;8.18;;;;;;;18.76;25.85;95807.78;5021371;28;20199;-77
2022/03/22 11:57:26;;;;;;;14.15;8.27;;;;;;;18.02;26.50;95812.28;5018977;28;20674;-77
2022/03/22 11:59:56;;;;;;;12.90;7.90;;;;;;;17.85;26.41;95809.59;5019049;28;20207;-76
2022/03/22 12:02:31;;;;;;;12.93;6.70;;;;;;;17.47;26.17;95796.19;5020056;28;20278;-76
2022/03/22 12:05:00;;;;;;;14.60;7.10;;;;;;;16.32;27.19;95797.75;5022719;28;20229;-76
2022/03/22 12:07:32;;;;;;;12.83;6.87;;;;;;;16.04;27.75;95792.31;5020097;28;20199;-76
2022/03/22 12:10:08;;;;;;;14.93;6.97;;;;;;;16.34;27.34;95793.88;5018663;28;20319;-76
2022/03/22 12:12:38;;;;;;;12.60;6.93;;;;;;;16.37;26.91;95793.44;5020361;28;20268;-76